sensor_id;sensor_type;location;lat;lon;timestamp;P1;durP1;ratioP1;P2;durP2;ratioP2
59689;SDS011;45557;50.298;18.930;2022-10-15T00:01:29;53.40;;;36.40;;
59689;SDS011;45557;50.298;18.930;2022-10-15T00:07:52;51.20;;;35.80;;
59689;SDS011;45557;50.298;18.930;2022-10-15T00:13:19;51.00;;;35.30;;
59689;SDS011;45557;50.298;18.930;2022-10-15T00:19:22;53.90;;;35.80;;
59689;SDS011;45557;50.298;18.930;2022-10-15T00:24:59;51.40;;;35.80;;
59689;SDS011;45557;50.298;18.930;2022-10-15T00:31:04;49.10;;;34.10;;
59689;SDS011;45557;50.298;18.930;2022-10-15T00:37:45;54.40;;;34.90;;
59689;SDS011;45557;50.298;18.930;2022-10-15T00:50:45;49.60;;;34.10;;
59689;SDS011;45557;50.298;18.930;2022-10-15T00:56:42;48.70;;;33.10;;
59689;SDS011;45557;50.298;18.930;2022-10-15T01:02:34;46.40;;;32.80;;
59689;SDS011;45557;50.298;18.930;2022-10-15T01:08:18;46.70;;;32.40;;
59689;SDS011;45557;50.298;18.930;2022-10-15T01:14:43;47.90;;;31.80;;
59689;SDS011;45557;50.298;18.930;2022-10-15T01:27:03;47.50;;;30.80;;
59689;SDS011;45557;50.298;18.930;2022-10-15T01:40:22;52.20;;;35.60;;
59689;SDS011;45557;50.298;18.930;2022-10-15T01:46:33;44.00;;;30.40;;
59689;SDS011;45557;50.298;18.930;2022-10-15T01:52:54;48.30;;;34.60;;
59689;SDS011;45557;50.298;18.930;2022-10-15T02:04:41;45.40;;;31.60;;
59689;SDS011;45557;50.298;18.930;2022-10-15T02:16:39;47.30;;;33.90;;
59689;SDS011;45557;50.298;18.930;2022-10-15T02:22:24;49.40;;;32.00;;
59689;SDS011;45557;50.298;18.930;2022-10-15T02:28:00;45.70;;;32.20;;
59689;SDS011;45557;50.298;18.930;2022-10-15T02:33:33;111.60;;;79.30;;
59689;SDS011;45557;50.298;18.930;2022-10-15T02:39:21;94.70;;;65.00;;
59689;SDS011;45557;50.298;18.930;2022-10-15T02:45:07;67.20;;;43.60;;
59689;SDS011;45557;50.298;18.930;2022-10-15T02:50:52;72.10;;;48.80;;
59689;SDS011;45557;50.298;18.930;2022-10-15T02:57:16;65.40;;;44.90;;
59689;SDS011;45557;50.298;18.930;2022-10-15T03:02:59;59.00;;;40.80;;
59689;SDS011;45557;50.298;18.930;2022-10-15T03:09:23;56.60;;;40.50;;
59689;SDS011;45557;50.298;18.930;2022-10-15T03:14:46;55.40;;;40.10;;
59689;SDS011;45557;50.298;18.930;2022-10-15T03:20:12;51.60;;;34.60;;
59689;SDS011;45557;50.298;18.930;2022-10-15T03:25:37;44.60;;;31.90;;
59689;SDS011;45557;50.298;18.930;2022-10-15T03:32:01;47.90;;;31.40;;
59689;SDS011;45557;50.298;18.930;2022-10-15T03:37:34;42.80;;;29.80;;
59689;SDS011;45557;50.298;18.930;2022-10-15T03:43:23;42.40;;;28.00;;
59689;SDS011;45557;50.298;18.930;2022-10-15T03:49:29;47.50;;;30.10;;
59689;SDS011;45557;50.298;18.930;2022-10-15T03:55:48;44.60;;;30.60;;
59689;SDS011;45557;50.298;18.930;2022-10-15T04:02:00;56.40;;;37.30;;
59689;SDS011;45557;50.298;18.930;2022-10-15T04:07:44;53.00;;;34.50;;
59689;SDS011;45557;50.298;18.930;2022-10-15T04:13:29;47.30;;;31.80;;
59689;SDS011;45557;50.298;18.930;2022-10-15T04:18:54;45.20;;;31.80;;
59689;SDS011;45557;50.298;18.930;2022-10-15T04:24:58;44.80;;;29.20;;
59689;SDS011;45557;50.298;18.930;2022-10-15T04:30:26;41.70;;;27.60;;
59689;SDS011;45557;50.298;18.930;2022-10-15T04:36:16;42.50;;;29.40;;
59689;SDS011;45557;50.298;18.930;2022-10-15T04:42:06;44.90;;;30.60;;
59689;SDS011;45557;50.298;18.930;2022-10-15T04:47:55;42.10;;;28.20;;
59689;SDS011;45557;50.298;18.930;2022-10-15T04:54:36;40.60;;;28.50;;
59689;SDS011;45557;50.298;18.930;2022-10-15T05:01:19;40.60;;;27.00;;
59689;SDS011;45557;50.298;18.930;2022-10-15T05:08:02;37.30;;;26.50;;
59689;SDS011;45557;50.298;18.930;2022-10-15T05:14:45;43.90;;;29.10;;
59689;SDS011;45557;50.298;18.930;2022-10-15T05:21:28;39.20;;;26.00;;
59689;SDS011;45557;50.298;18.930;2022-10-15T05:28:11;36.90;;;27.30;;
59689;SDS011;45557;50.298;18.930;2022-10-15T05:34:54;37.30;;;26.30;;
59689;SDS011;45557;50.298;18.930;2022-10-15T05:42:04;38.70;;;26.00;;
59689;SDS011;45557;50.298;18.930;2022-10-15T05:48:50;44.20;;;26.20;;
59689;SDS011;45557;50.298;18.930;2022-10-15T05:55:38;37.10;;;25.30;;
59689;SDS011;45557;50.298;18.930;2022-10-15T06:02:22;36.40;;;26.00;;
59689;SDS011;45557;50.298;18.930;2022-10-15T06:09:05;35.50;;;24.50;;
59689;SDS011;45557;50.298;18.930;2022-10-15T06:15:48;38.10;;;25.40;;
59689;SDS011;45557;50.298;18.930;2022-10-15T06:22:29;35.40;;;26.20;;
59689;SDS011;45557;50.298;18.930;2022-10-15T06:29:09;33.30;;;23.70;;
59689;SDS011;45557;50.298;18.930;2022-10-15T06:35:52;34.20;;;24.00;;
59689;SDS011;45557;50.298;18.930;2022-10-15T06:42:34;35.70;;;27.10;;
59689;SDS011;45557;50.298;18.930;2022-10-15T06:48:42;38.80;;;25.80;;
59689;SDS011;45557;50.298;18.930;2022-10-15T06:55:24;34.70;;;25.30;;
59689;SDS011;45557;50.298;18.930;2022-10-15T07:02:08;34.10;;;24.80;;
59689;SDS011;45557;50.298;18.930;2022-10-15T07:08:51;32.30;;;23.40;;
59689;SDS011;45557;50.298;18.930;2022-10-15T07:15:33;32.20;;;22.50;;
59689;SDS011;45557;50.298;18.930;2022-10-15T07:22:16;31.30;;;21.10;;
59689;SDS011;45557;50.298;18.930;2022-10-15T07:29:56;34.20;;;22.20;;
59689;SDS011;45557;50.298;18.930;2022-10-15T07:37:28;29.00;;;20.80;;
59689;SDS011;45557;50.298;18.930;2022-10-15T07:43:14;27.50;;;20.20;;
59689;SDS011;45557;50.298;18.930;2022-10-15T07:49:16;26.10;;;20.10;;
59689;SDS011;45557;50.298;18.930;2022-10-15T07:55:58;24.10;;;17.70;;
59689;SDS011;45557;50.298;18.930;2022-10-15T08:01:23;26.80;;;20.10;;
59689;SDS011;45557;50.298;18.930;2022-10-15T08:06:46;27.20;;;20.70;;
59689;SDS011;45557;50.298;18.930;2022-10-15T08:12:10;28.00;;;19.10;;
59689;SDS011;45557;50.298;18.930;2022-10-15T08:17:36;35.10;;;25.80;;
59689;SDS011;45557;50.298;18.930;2022-10-15T08:23:26;24.90;;;18.00;;
59689;SDS011;45557;50.298;18.930;2022-10-15T08:28:51;25.20;;;18.20;;
59689;SDS011;45557;50.298;18.930;2022-10-15T08:34:18;24.00;;;17.40;;
59689;SDS011;45557;50.298;18.930;2022-10-15T08:39:48;23.50;;;17.90;;
59689;SDS011;45557;50.298;18.930;2022-10-15T08:45:16;21.40;;;15.40;;
59689;SDS011;45557;50.298;18.930;2022-10-15T08:50:47;23.00;;;15.70;;
59689;SDS011;45557;50.298;18.930;2022-10-15T08:56:21;21.80;;;13.90;;
59689;SDS011;45557;50.298;18.930;2022-10-15T09:01:54;21.10;;;14.00;;
59689;SDS011;45557;50.298;18.930;2022-10-15T09:07:43;18.00;;;13.10;;
59689;SDS011;45557;50.298;18.930;2022-10-15T09:13:25;15.90;;;11.50;;
59689;SDS011;45557;50.298;18.930;2022-10-15T09:18:49;15.00;;;11.40;;
59689;SDS011;45557;50.298;18.930;2022-10-15T09:24:16;16.40;;;11.50;;
59689;SDS011;45557;50.298;18.930;2022-10-15T09:29:49;15.50;;;10.60;;
59689;SDS011;45557;50.298;18.930;2022-10-15T09:35:42;13.10;;;10.40;;
59689;SDS011;45557;50.298;18.930;2022-10-15T09:49:37;17.60;;;9.80;;
59689;SDS011;45557;50.298;18.930;2022-10-15T10:02:24;14.40;;;8.70;;
59689;SDS011;45557;50.298;18.930;2022-10-15T10:08:53;13.90;;;9.00;;
59689;SDS011;45557;50.298;18.930;2022-10-15T10:15:28;12.70;;;8.10;;
59689;SDS011;45557;50.298;18.930;2022-10-15T10:21:53;12.50;;;8.70;;
59689;SDS011;45557;50.298;18.930;2022-10-15T10:28:31;12.70;;;8.20;;
59689;SDS011;45557;50.298;18.930;2022-10-15T10:35:20;12.20;;;8.10;;
59689;SDS011;45557;50.298;18.930;2022-10-15T10:48:56;12.80;;;8.50;;
59689;SDS011;45557;50.298;18.930;2022-10-15T10:55:39;13.50;;;8.60;;
59689;SDS011;45557;50.298;18.930;2022-10-15T11:02:22;12.90;;;8.10;;
59689;SDS011;45557;50.298;18.930;2022-10-15T11:26:31;13.50;;;7.70;;
59689;SDS011;45557;50.298;18.930;2022-10-15T11:32:33;14.20;;;8.50;;
59689;SDS011;45557;50.298;18.930;2022-10-15T11:38:38;12.00;;;8.30;;
59689;SDS011;45557;50.298;18.930;2022-10-15T11:44:08;12.70;;;8.20;;
59689;SDS011;45557;50.298;18.930;2022-10-15T11:55:40;13.20;;;8.10;;
59689;SDS011;45557;50.298;18.930;2022-10-15T12:02:28;10.60;;;7.40;;
59689;SDS011;45557;50.298;18.930;2022-10-15T12:09:11;10.10;;;7.40;;
59689;SDS011;45557;50.298;18.930;2022-10-15T12:27:44;13.60;;;8.40;;
59689;SDS011;45557;50.298;18.930;2022-10-15T12:33:28;12.90;;;8.10;;
59689;SDS011;45557;50.298;18.930;2022-10-15T12:39:07;11.80;;;8.20;;
59689;SDS011;45557;50.298;18.930;2022-10-15T12:45:06;12.50;;;7.90;;
59689;SDS011;45557;50.298;18.930;2022-10-15T13:03:22;12.20;;;7.40;;
59689;SDS011;45557;50.298;18.930;2022-10-15T13:14:59;11.30;;;7.90;;
59689;SDS011;45557;50.298;18.930;2022-10-15T13:20:43;13.80;;;7.60;;
59689;SDS011;45557;50.298;18.930;2022-10-15T13:26:09;9.80;;;7.00;;
59689;SDS011;45557;50.298;18.930;2022-10-15T13:31:48;11.10;;;7.70;;
59689;SDS011;45557;50.298;18.930;2022-10-15T13:37:33;12.50;;;7.70;;
59689;SDS011;45557;50.298;18.930;2022-10-15T13:43:04;11.70;;;7.60;;
59689;SDS011;45557;50.298;18.930;2022-10-15T13:48:39;12.40;;;8.20;;
59689;SDS011;45557;50.298;18.930;2022-10-15T13:55:21;15.30;;;8.50;;
59689;SDS011;45557;50.298;18.930;2022-10-15T14:01:43;12.10;;;6.80;;
59689;SDS011;45557;50.298;18.930;2022-10-15T14:08:25;11.90;;;7.90;;
59689;SDS011;45557;50.298;18.930;2022-10-15T14:21:19;12.10;;;7.90;;
59689;SDS011;45557;50.298;18.930;2022-10-15T14:26:49;11.80;;;7.90;;
59689;SDS011;45557;50.298;18.930;2022-10-15T14:32:26;12.60;;;8.40;;
59689;SDS011;45557;50.298;18.930;2022-10-15T14:38:48;12.50;;;8.40;;
59689;SDS011;45557;50.298;18.930;2022-10-15T14:45:38;11.80;;;8.00;;
59689;SDS011;45557;50.298;18.930;2022-10-15T14:51:16;15.00;;;10.30;;
59689;SDS011;45557;50.298;18.930;2022-10-15T14:56:46;13.20;;;8.90;;
59689;SDS011;45557;50.298;18.930;2022-10-15T15:02:18;14.40;;;9.50;;
59689;SDS011;45557;50.298;18.930;2022-10-15T15:07:40;14.70;;;10.20;;
59689;SDS011;45557;50.298;18.930;2022-10-15T15:13:03;14.40;;;9.50;;
59689;SDS011;45557;50.298;18.930;2022-10-15T15:18:25;14.70;;;9.30;;
59689;SDS011;45557;50.298;18.930;2022-10-15T15:23:49;16.90;;;9.00;;
59689;SDS011;45557;50.298;18.930;2022-10-15T15:29:11;15.90;;;10.20;;
59689;SDS011;45557;50.298;18.930;2022-10-15T15:34:38;17.00;;;10.90;;
59689;SDS011;45557;50.298;18.930;2022-10-15T15:40:00;13.70;;;9.40;;
59689;SDS011;45557;50.298;18.930;2022-10-15T15:45:25;15.50;;;10.30;;
59689;SDS011;45557;50.298;18.930;2022-10-15T15:50:48;16.50;;;10.20;;
59689;SDS011;45557;50.298;18.930;2022-10-15T15:56:10;16.90;;;10.80;;
59689;SDS011;45557;50.298;18.930;2022-10-15T16:01:32;16.60;;;11.00;;
59689;SDS011;45557;50.298;18.930;2022-10-15T16:06:55;16.50;;;11.40;;
59689;SDS011;45557;50.298;18.930;2022-10-15T16:12:17;16.80;;;10.80;;
59689;SDS011;45557;50.298;18.930;2022-10-15T16:17:39;17.70;;;11.70;;
59689;SDS011;45557;50.298;18.930;2022-10-15T16:23:02;19.80;;;12.70;;
59689;SDS011;45557;50.298;18.930;2022-10-15T16:28:24;21.30;;;14.80;;
59689;SDS011;45557;50.298;18.930;2022-10-15T16:33:46;21.20;;;14.10;;
59689;SDS011;45557;50.298;18.930;2022-10-15T16:39:13;21.90;;;15.40;;
59689;SDS011;45557;50.298;18.930;2022-10-15T16:44:56;24.50;;;16.90;;
59689;SDS011;45557;50.298;18.930;2022-10-15T16:50:18;25.50;;;17.00;;
59689;SDS011;45557;50.298;18.930;2022-10-15T16:55:40;23.50;;;16.30;;
59689;SDS011;45557;50.298;18.930;2022-10-15T17:01:04;25.60;;;16.50;;
59689;SDS011;45557;50.298;18.930;2022-10-15T17:06:28;23.40;;;16.50;;
59689;SDS011;45557;50.298;18.930;2022-10-15T17:12:11;24.80;;;15.70;;
59689;SDS011;45557;50.298;18.930;2022-10-15T17:17:56;22.30;;;15.90;;
59689;SDS011;45557;50.298;18.930;2022-10-15T17:23:18;23.30;;;15.60;;
59689;SDS011;45557;50.298;18.930;2022-10-15T17:28:42;24.50;;;15.20;;
59689;SDS011;45557;50.298;18.930;2022-10-15T17:34:05;24.70;;;16.60;;
59689;SDS011;45557;50.298;18.930;2022-10-15T17:39:31;23.70;;;16.10;;
59689;SDS011;45557;50.298;18.930;2022-10-15T17:44:53;24.90;;;16.20;;
59689;SDS011;45557;50.298;18.930;2022-10-15T17:50:16;23.10;;;16.90;;
59689;SDS011;45557;50.298;18.930;2022-10-15T17:55:39;25.80;;;17.90;;
59689;SDS011;45557;50.298;18.930;2022-10-15T18:01:02;24.90;;;16.20;;
59689;SDS011;45557;50.298;18.930;2022-10-15T18:06:24;22.20;;;15.90;;
59689;SDS011;45557;50.298;18.930;2022-10-15T18:17:11;27.10;;;19.50;;
59689;SDS011;45557;50.298;18.930;2022-10-15T18:22:33;29.60;;;19.50;;
59689;SDS011;45557;50.298;18.930;2022-10-15T18:28:17;28.80;;;18.80;;
59689;SDS011;45557;50.298;18.930;2022-10-15T18:33:45;28.20;;;18.50;;
59689;SDS011;45557;50.298;18.930;2022-10-15T18:40:34;30.50;;;21.10;;
59689;SDS011;45557;50.298;18.930;2022-10-15T18:46:03;27.60;;;18.70;;
59689;SDS011;45557;50.298;18.930;2022-10-15T18:51:27;29.40;;;21.60;;
59689;SDS011;45557;50.298;18.930;2022-10-15T18:56:50;30.10;;;20.70;;
59689;SDS011;45557;50.298;18.930;2022-10-15T19:02:14;27.90;;;19.00;;
59689;SDS011;45557;50.298;18.930;2022-10-15T19:07:37;29.80;;;19.70;;
59689;SDS011;45557;50.298;18.930;2022-10-15T19:13:01;21.10;;;15.30;;
59689;SDS011;45557;50.298;18.930;2022-10-15T19:18:24;26.00;;;16.60;;
59689;SDS011;45557;50.298;18.930;2022-10-15T19:25:07;25.90;;;16.60;;
59689;SDS011;45557;50.298;18.930;2022-10-15T19:30:30;23.80;;;17.60;;
59689;SDS011;45557;50.298;18.930;2022-10-15T19:35:52;24.50;;;16.40;;
59689;SDS011;45557;50.298;18.930;2022-10-15T19:41:17;24.70;;;16.00;;
59689;SDS011;45557;50.298;18.930;2022-10-15T19:46:40;46.80;;;31.00;;
59689;SDS011;45557;50.298;18.930;2022-10-15T19:52:02;25.90;;;16.80;;
59689;SDS011;45557;50.298;18.930;2022-10-15T19:57:24;24.50;;;16.00;;
59689;SDS011;45557;50.298;18.930;2022-10-15T20:02:47;25.80;;;16.30;;
59689;SDS011;45557;50.298;18.930;2022-10-15T20:08:09;20.70;;;14.10;;
59689;SDS011;45557;50.298;18.930;2022-10-15T20:14:55;23.70;;;15.30;;
59689;SDS011;45557;50.298;18.930;2022-10-15T20:21:28;21.90;;;15.80;;
59689;SDS011;45557;50.298;18.930;2022-10-15T20:28:12;19.90;;;13.90;;
59689;SDS011;45557;50.298;18.930;2022-10-15T20:34:57;21.60;;;13.70;;
59689;SDS011;45557;50.298;18.930;2022-10-15T20:41:40;22.90;;;16.40;;
59689;SDS011;45557;50.298;18.930;2022-10-15T20:48:24;24.00;;;15.80;;
59689;SDS011;45557;50.298;18.930;2022-10-15T20:55:07;21.80;;;15.30;;
59689;SDS011;45557;50.298;18.930;2022-10-15T21:01:49;24.60;;;17.40;;
59689;SDS011;45557;50.298;18.930;2022-10-15T21:08:32;25.20;;;16.40;;
59689;SDS011;45557;50.298;18.930;2022-10-15T21:15:15;32.00;;;24.20;;
59689;SDS011;45557;50.298;18.930;2022-10-15T21:21:58;26.60;;;18.10;;
59689;SDS011;45557;50.298;18.930;2022-10-15T21:28:41;28.10;;;17.80;;
59689;SDS011;45557;50.298;18.930;2022-10-15T21:35:23;27.50;;;18.30;;
59689;SDS011;45557;50.298;18.930;2022-10-15T21:42:06;25.40;;;16.70;;
59689;SDS011;45557;50.298;18.930;2022-10-15T21:48:50;24.00;;;16.10;;
59689;SDS011;45557;50.298;18.930;2022-10-15T21:55:33;26.30;;;15.70;;
59689;SDS011;45557;50.298;18.930;2022-10-15T22:02:19;25.80;;;16.10;;
59689;SDS011;45557;50.298;18.930;2022-10-15T22:09:05;22.20;;;15.70;;
59689;SDS011;45557;50.298;18.930;2022-10-15T22:15:50;20.10;;;14.70;;
59689;SDS011;45557;50.298;18.930;2022-10-15T22:22:39;18.60;;;13.10;;
59689;SDS011;45557;50.298;18.930;2022-10-15T22:36:57;20.30;;;13.70;;
59689;SDS011;45557;50.298;18.930;2022-10-15T22:43:44;21.60;;;13.30;;
59689;SDS011;45557;50.298;18.930;2022-10-15T22:50:34;19.50;;;13.70;;
59689;SDS011;45557;50.298;18.930;2022-10-15T22:57:21;18.80;;;12.40;;
59689;SDS011;45557;50.298;18.930;2022-10-15T23:04:13;15.70;;;11.60;;
59689;SDS011;45557;50.298;18.930;2022-10-15T23:11:34;18.50;;;11.90;;
59689;SDS011;45557;50.298;18.930;2022-10-15T23:18:18;16.80;;;11.60;;
59689;SDS011;45557;50.298;18.930;2022-10-15T23:25:35;15.30;;;11.40;;
59689;SDS011;45557;50.298;18.930;2022-10-15T23:32:32;16.90;;;11.90;;
59689;SDS011;45557;50.298;18.930;2022-10-15T23:39:47;17.50;;;12.10;;
59689;SDS011;45557;50.298;18.930;2022-10-15T23:46:45;15.40;;;12.30;;
59689;SDS011;45557;50.298;18.930;2022-10-15T23:53:30;17.60;;;11.80;;
